トロンハイム の空港の天気 - METARとTAF

Trondheim / Vaernes ( ENVA / TRD ) - ノルウェー ヌール・トロンデラーグ県、Stjordal
飛行場実況気象(Metar)
観測時間02/20 15:50 CET (02/20 14:50 UTC)
風向・風速不定 2m/s
視程10km以上
天気現象周辺でしゅう雨
少しの雲 雲底高度 240m
全天の4割程度の雲 雲底高度 490m
全天の8割程度の雲 雲底高度 700m
気温1℃
湿度86%
気圧989hPa
METARENVA 201450Z VRB03KT 9999 VCSH FEW008 SCT016 BKN023 01/M01 Q0989 TEMPO BKN010 RMK WIND 670FT 33004KT
過去の天気等 Google飛行場航空写真 Wunderground天気予報

過去48時間のMETAR

飛行場予報(TAF)
発表時間: -
TAF ENVA 2012/2112 VRB05KT 9999 SCT012 BKN080